createdAt,value
2023-05-01T00:01:29.856Z,4.78
2023-05-01T00:03:57.493Z,4.68
2023-05-01T00:06:25.104Z,4.80
2023-05-01T00:08:52.471Z,5.22
2023-05-01T00:11:19.792Z,5.20
2023-05-01T00:13:47.349Z,4.47
2023-05-01T00:16:15.196Z,4.80
2023-05-01T00:18:42.521Z,4.30
2023-05-01T00:21:09.858Z,5.15
2023-05-01T00:23:37.309Z,5.35
2023-05-01T00:26:04.905Z,5.47
2023-05-01T00:28:33.000Z,5.25
2023-05-01T00:31:00.394Z,6.35
2023-05-01T00:33:27.871Z,5.00
2023-05-01T00:35:56.259Z,6.95
2023-05-01T00:38:24.525Z,5.63
2023-05-01T00:40:51.851Z,6.05
2023-05-01T00:43:19.208Z,7.20
2023-05-01T00:45:47.577Z,6.80
2023-05-01T00:48:16.203Z,6.15
2023-05-01T00:50:45.054Z,8.10
2023-05-01T00:53:12.818Z,10.23
2023-05-01T00:55:42.905Z,9.40
2023-05-01T00:58:11.865Z,8.43
2023-05-01T01:00:39.365Z,9.43
2023-05-01T01:03:06.945Z,10.13
2023-05-01T01:05:41.486Z,10.75
2023-05-01T01:10:54.795Z,9.82
2023-05-01T01:13:31.048Z,10.63
2023-05-01T01:16:22.971Z,12.77
2023-05-01T01:19:30.539Z,11.05
2023-05-01T01:22:05.084Z,10.18
2023-05-01T01:25:12.113Z,8.82
2023-05-01T01:30:57.033Z,9.35
2023-05-01T01:33:51.215Z,7.95
2023-05-01T01:36:35.129Z,9.63
2023-05-01T01:41:49.432Z,7.70
2023-05-01T01:44:24.895Z,8.18
2023-05-01T01:46:54.767Z,6.22
2023-05-01T01:49:25.853Z,7.18
2023-05-01T01:51:56.137Z,6.80
2023-05-01T01:54:30.902Z,6.82
2023-05-01T01:57:00.512Z,6.53
2023-05-01T01:59:31.173Z,5.80
2023-05-01T02:01:59.369Z,5.90
2023-05-01T02:04:28.079Z,5.78
2023-05-01T02:06:58.091Z,5.90
2023-05-01T02:09:27.311Z,5.78
2023-05-01T02:11:58.259Z,5.95
2023-05-01T02:14:27.075Z,5.55
2023-05-01T02:16:54.487Z,5.38
2023-05-01T02:19:22.034Z,5.15
2023-05-01T02:21:50.245Z,4.45
2023-05-01T02:24:18.599Z,5.20
2023-05-01T02:26:49.720Z,5.15
2023-05-01T02:29:17.221Z,5.63
2023-05-01T02:31:44.660Z,5.50
2023-05-01T02:34:12.576Z,4.68
2023-05-01T02:36:40.020Z,5.13
2023-05-01T02:39:07.682Z,5.10
2023-05-01T02:41:35.896Z,5.35
2023-05-01T02:44:05.220Z,4.72
2023-05-01T02:46:36.334Z,5.13
2023-05-01T02:51:32.719Z,4.72
2023-05-01T02:54:00.643Z,4.72
2023-05-01T02:56:28.855Z,5.68
2023-05-01T02:58:56.471Z,5.28
2023-05-01T03:01:24.089Z,4.68
2023-05-01T03:03:52.551Z,4.57
2023-05-01T03:06:23.059Z,3.67
2023-05-01T03:08:50.885Z,4.72
2023-05-01T03:11:18.172Z,4.50
2023-05-01T03:13:46.645Z,3.90
2023-05-01T03:16:14.069Z,4.30
2023-05-01T03:18:41.488Z,4.22
2023-05-01T03:21:09.212Z,4.15
2023-05-01T03:23:38.661Z,4.70
2023-05-01T03:26:06.937Z,4.53
2023-05-01T03:28:34.517Z,4.28
2023-05-01T03:31:02.522Z,3.90
2023-05-01T03:33:31.985Z,4.40
2023-05-01T03:36:01.661Z,4.03
2023-05-01T03:38:29.158Z,4.20
2023-05-01T03:41:22.944Z,4.35
2023-05-01T03:44:10.298Z,3.65
2023-05-01T03:46:42.617Z,4.15
2023-05-01T03:49:15.325Z,5.22
2023-05-01T03:51:47.593Z,4.97
2023-05-01T03:54:15.517Z,4.93
2023-05-01T03:56:57.246Z,4.85
2023-05-01T03:59:25.420Z,5.13
2023-05-01T04:01:53.132Z,5.45
2023-05-01T04:04:21.560Z,5.07
2023-05-01T04:06:55.693Z,5.25
2023-05-01T04:09:23.174Z,5.60
2023-05-01T04:11:50.538Z,5.43
2023-05-01T04:14:17.858Z,5.55
2023-05-01T04:16:45.627Z,5.63
2023-05-01T04:19:13.872Z,5.32
2023-05-01T04:21:44.370Z,5.50
2023-05-01T04:24:11.872Z,5.60
2023-05-01T04:26:39.716Z,5.03
2023-05-01T04:29:07.698Z,5.10
2023-05-01T04:31:35.249Z,4.60
2023-05-01T04:34:02.695Z,4.28
2023-05-01T04:36:30.005Z,4.72
2023-05-01T04:38:57.593Z,4.53
2023-05-01T04:41:25.099Z,3.95
2023-05-01T04:43:53.134Z,4.05
2023-05-01T04:46:20.751Z,3.53
2023-05-01T04:48:48.236Z,4.57
2023-05-01T04:51:16.197Z,3.92
2023-05-01T04:53:43.556Z,4.00
2023-05-01T04:56:20.558Z,3.72
2023-05-01T04:58:50.171Z,4.35
2023-05-01T05:01:21.507Z,3.42
2023-05-01T05:03:50.357Z,3.75
2023-05-01T05:06:18.402Z,5.10
2023-05-01T05:08:46.330Z,4.43
2023-05-01T05:11:29.340Z,4.60
2023-05-01T05:14:02.858Z,4.75
2023-05-01T05:16:30.997Z,4.43
2023-05-01T05:18:58.489Z,4.20
2023-05-01T05:21:28.702Z,4.20
2023-05-01T05:23:58.072Z,4.65
2023-05-01T05:26:27.013Z,5.03
2023-05-01T05:29:13.018Z,5.07
2023-05-01T05:31:40.489Z,3.90
2023-05-01T05:34:23.684Z,4.70
2023-05-01T05:36:51.099Z,4.10
2023-05-01T05:39:38.384Z,4.55
2023-05-01T05:42:06.326Z,4.50
2023-05-01T05:44:49.477Z,4.88
2023-05-01T05:47:17.203Z,5.28
2023-05-01T05:50:00.309Z,4.72
2023-05-01T05:52:28.296Z,3.90
2023-05-01T05:54:57.078Z,3.55
2023-05-01T05:57:25.171Z,4.68
2023-05-01T06:00:10.301Z,4.57
2023-05-01T06:02:51.126Z,3.85
2023-05-01T06:05:20.817Z,3.90
2023-05-01T06:07:48.293Z,3.75
2023-05-01T06:10:15.712Z,3.92
2023-05-01T06:12:47.893Z,3.58
2023-05-01T06:15:19.914Z,3.75
2023-05-01T06:17:53.224Z,3.67
2023-05-01T06:20:20.684Z,4.05
2023-05-01T06:22:50.821Z,4.22
2023-05-01T06:25:24.332Z,3.97
2023-05-01T06:27:51.913Z,4.78
2023-05-01T06:30:22.219Z,4.95
2023-05-01T06:32:50.436Z,4.38
2023-05-01T06:35:18.313Z,6.72
2023-05-01T06:38:01.306Z,6.93
2023-05-01T06:40:28.935Z,5.85
2023-05-01T06:42:56.420Z,4.80
2023-05-01T06:45:27.879Z,5.97
2023-05-01T06:47:55.547Z,6.65
2023-05-01T06:50:23.134Z,6.88
2023-05-01T06:52:50.507Z,6.95
2023-05-01T06:55:17.958Z,6.25
2023-05-01T06:57:45.446Z,6.95
2023-05-01T07:00:14.076Z,7.78
2023-05-01T07:02:41.918Z,7.18
2023-05-01T07:05:09.766Z,6.90
2023-05-01T07:07:38.943Z,6.50
2023-05-01T07:10:09.711Z,6.45
2023-05-01T07:12:37.269Z,5.95
2023-05-01T07:15:05.186Z,5.97
2023-05-01T07:17:32.852Z,6.50
2023-05-01T07:20:01.576Z,5.15
2023-05-01T07:22:30.913Z,6.10
2023-05-01T07:24:58.462Z,6.47
2023-05-01T07:27:25.933Z,6.85
2023-05-01T07:29:54.229Z,5.57
2023-05-01T07:32:21.991Z,5.90
2023-05-01T07:34:49.450Z,5.53
2023-05-01T07:37:17.019Z,6.22
2023-05-01T07:39:44.694Z,5.82
2023-05-01T07:42:12.175Z,5.40
2023-05-01T07:44:39.554Z,5.13
2023-05-01T07:47:07.408Z,6.28
2023-05-01T07:49:37.766Z,4.63
2023-05-01T07:52:07.955Z,5.07
2023-05-01T07:54:35.304Z,5.25
2023-05-01T07:57:03.999Z,5.15
2023-05-01T07:59:31.346Z,4.57
2023-05-01T08:01:58.852Z,4.72
2023-05-01T08:04:28.064Z,5.03
2023-05-01T08:06:56.154Z,5.53
2023-05-01T08:09:23.821Z,5.28
2023-05-01T08:11:51.242Z,4.97
2023-05-01T08:14:19.664Z,5.35
2023-05-01T08:16:47.206Z,4.85
2023-05-01T08:19:14.834Z,4.50
2023-05-01T08:21:44.992Z,4.80
2023-05-01T08:24:13.019Z,5.25
2023-05-01T08:26:40.525Z,4.55
2023-05-01T08:29:08.023Z,4.72
2023-05-01T08:31:38.149Z,4.20
2023-05-01T08:34:06.513Z,4.90
2023-05-01T08:36:34.667Z,5.18
2023-05-01T08:39:02.279Z,4.47
2023-05-01T08:41:31.556Z,4.28
2023-05-01T08:44:00.401Z,4.80
2023-05-01T08:46:48.771Z,4.05
2023-05-01T08:49:33.404Z,5.10
2023-05-01T08:52:02.758Z,4.40
2023-05-01T08:54:32.549Z,4.43
2023-05-01T08:57:04.917Z,4.40
2023-05-01T08:59:34.722Z,4.93
2023-05-01T09:02:04.687Z,5.20
2023-05-01T09:04:35.905Z,5.43
2023-05-01T09:07:04.015Z,4.53
2023-05-01T09:09:33.002Z,5.10
2023-05-01T09:12:21.578Z,5.03
2023-05-01T09:14:49.542Z,4.80
2023-05-01T09:17:17.195Z,4.72
2023-05-01T09:19:44.786Z,3.70
2023-05-01T09:22:12.406Z,4.30
2023-05-01T09:24:39.923Z,4.18
2023-05-01T09:27:07.928Z,3.50
2023-05-01T09:32:22.309Z,5.70
2023-05-01T09:34:51.259Z,5.07
2023-05-01T09:37:35.082Z,4.97
2023-05-01T09:42:52.447Z,4.35
2023-05-01T09:45:20.753Z,3.88
2023-05-01T09:47:48.707Z,3.22
2023-05-01T09:50:34.018Z,3.60
2023-05-01T09:53:02.340Z,4.63
2023-05-01T09:55:29.905Z,3.58
2023-05-01T09:57:59.046Z,4.18
2023-05-01T10:00:27.129Z,3.72
2023-05-01T10:02:54.728Z,4.00
2023-05-01T10:05:23.324Z,3.63
2023-05-01T10:08:10.989Z,3.67
2023-05-01T10:10:38.731Z,4.32
2023-05-01T10:13:21.870Z,3.50
2023-05-01T10:15:50.499Z,3.20
2023-05-01T10:18:18.959Z,3.33
2023-05-01T10:20:46.712Z,3.65
2023-05-01T10:23:14.683Z,3.22
2023-05-01T10:25:42.788Z,3.20
2023-05-01T10:28:11.584Z,3.30
2023-05-01T10:30:40.609Z,3.33
2023-05-01T10:33:08.671Z,3.83
2023-05-01T10:35:39.562Z,3.33
2023-05-01T10:38:09.937Z,3.10
2023-05-01T10:48:54.924Z,2.78
2023-05-01T10:51:27.570Z,3.42
2023-05-01T10:56:53.897Z,3.80
2023-05-01T10:59:21.802Z,2.92
2023-05-01T11:01:52.247Z,2.80
2023-05-01T11:15:45.079Z,2.72
2023-05-01T11:18:13.034Z,2.63
2023-05-01T11:20:49.078Z,2.20
2023-05-01T11:23:18.123Z,2.22
2023-05-01T11:26:05.243Z,2.25
2023-05-01T11:28:33.530Z,2.50
2023-05-01T11:31:01.218Z,2.53
2023-05-01T11:33:28.682Z,2.28
2023-05-01T11:36:12.008Z,2.70
2023-05-01T11:38:40.213Z,2.20
2023-05-01T11:41:07.647Z,3.20
2023-05-01T11:43:49.744Z,2.53
2023-05-01T11:46:24.506Z,3.22
2023-05-01T11:48:51.958Z,2.25
2023-05-01T11:51:19.553Z,2.70
2023-05-01T11:54:06.581Z,3.10
2023-05-01T11:56:35.119Z,2.65
2023-05-01T11:59:13.463Z,3.00
2023-05-01T12:01:42.347Z,3.20
2023-05-01T12:04:10.248Z,2.53
2023-05-01T12:06:44.049Z,2.90
2023-05-01T12:09:18.921Z,2.83
2023-05-01T12:11:49.067Z,2.47
2023-05-01T12:14:19.039Z,2.78
2023-05-01T12:16:47.306Z,2.42
2023-05-01T12:19:16.267Z,2.58
2023-05-01T12:21:44.005Z,2.67
2023-05-01T12:24:12.666Z,2.35
2023-05-01T12:26:40.925Z,2.60
2023-05-01T12:29:23.997Z,2.95
2023-05-01T12:31:51.642Z,2.80
2023-05-01T12:34:19.196Z,2.10
2023-05-01T12:36:54.170Z,2.45
2023-05-01T12:39:39.526Z,2.95
2023-05-01T12:42:13.564Z,2.97
2023-05-01T12:44:41.336Z,2.55
2023-05-01T12:47:09.816Z,2.60
2023-05-01T12:49:38.199Z,3.45
2023-05-01T12:52:08.054Z,2.85
2023-05-01T12:54:38.449Z,2.47
2023-05-01T12:57:15.352Z,3.25
2023-05-01T12:59:46.674Z,3.00
2023-05-01T13:02:16.490Z,2.90
2023-05-01T13:04:45.416Z,2.75
2023-05-01T13:07:15.429Z,2.67
2023-05-01T13:10:00.538Z,2.50
2023-05-01T13:12:29.470Z,2.50
2023-05-01T13:14:57.850Z,2.45
2023-05-01T13:17:30.994Z,2.67
2023-05-01T13:22:36.595Z,2.13
2023-05-01T13:25:05.982Z,2.75
2023-05-01T13:27:49.991Z,2.60
2023-05-01T13:30:22.719Z,3.30
2023-05-01T13:32:50.566Z,3.22
2023-05-01T13:35:24.234Z,2.97
2023-05-01T13:37:52.985Z,2.88
2023-05-01T13:40:21.749Z,2.40
2023-05-01T13:42:53.145Z,2.45
2023-05-01T13:45:36.722Z,2.50
2023-05-01T13:50:31.430Z,1.95
2023-05-01T13:52:59.502Z,2.13
2023-05-01T13:55:26.906Z,2.33
2023-05-01T13:58:10.150Z,1.65
2023-05-01T14:00:38.697Z,2.45
2023-05-01T14:03:06.488Z,2.58
2023-05-01T14:05:34.029Z,2.47
2023-05-01T14:08:02.515Z,2.38
2023-05-01T14:10:29.948Z,2.03
2023-05-01T14:12:59.187Z,1.90
2023-05-01T14:15:27.366Z,2.00
2023-05-01T14:17:54.932Z,1.95
2023-05-01T14:20:25.708Z,1.95
2023-05-01T14:22:53.985Z,1.83
2023-05-01T14:28:16.304Z,1.73
2023-05-01T14:30:44.266Z,1.45
2023-05-01T14:33:12.809Z,1.30
2023-05-01T14:35:49.262Z,1.85
2023-05-01T14:38:18.756Z,1.63
2023-05-01T14:40:46.823Z,1.60
2023-05-01T14:43:17.432Z,1.77
2023-05-01T14:45:46.988Z,2.10
2023-05-01T14:48:23.413Z,2.03
2023-05-01T14:50:52.272Z,1.50
2023-05-01T14:53:19.950Z,1.85
2023-05-01T14:55:51.512Z,1.60
2023-05-01T14:58:19.203Z,2.13
2023-05-01T15:00:47.941Z,1.70
2023-05-01T15:03:15.653Z,2.00
2023-05-01T15:05:44.726Z,2.05
2023-05-01T15:08:12.475Z,2.15
2023-05-01T15:10:39.843Z,1.30
2023-05-01T15:13:07.438Z,2.00
2023-05-01T15:15:34.902Z,2.00
2023-05-01T15:18:04.268Z,1.90
2023-05-01T15:20:32.026Z,1.98
2023-05-01T15:22:59.582Z,1.90
2023-05-01T15:25:27.145Z,2.08
2023-05-01T15:27:55.360Z,1.95
2023-05-01T15:30:22.886Z,1.85
2023-05-01T15:32:50.468Z,2.25
2023-05-01T15:35:18.337Z,2.90
2023-05-01T15:37:46.695Z,3.47
2023-05-01T15:40:14.366Z,2.78
2023-05-01T15:42:42.011Z,2.92
2023-05-01T15:45:10.528Z,2.83
2023-05-01T15:47:38.440Z,3.10
2023-05-01T15:50:11.198Z,3.30
2023-05-01T15:52:39.539Z,2.60
2023-05-01T15:55:07.669Z,2.78
2023-05-01T15:57:35.246Z,2.92
2023-05-01T16:00:03.259Z,3.42
2023-05-01T16:02:44.835Z,3.40
2023-05-01T16:05:14.077Z,3.65
2023-05-01T16:07:41.702Z,3.72
2023-05-01T16:10:09.852Z,3.38
2023-05-01T16:12:37.524Z,3.38
2023-05-01T16:15:06.031Z,3.75
2023-05-01T16:17:46.943Z,3.78
2023-05-01T16:20:30.740Z,3.63
2023-05-01T16:22:59.407Z,2.80
2023-05-01T16:25:27.046Z,3.20
2023-05-01T16:27:54.581Z,3.33
2023-05-01T16:30:42.580Z,2.03
2023-05-01T16:33:19.295Z,3.10
2023-05-01T16:35:48.795Z,2.38
2023-05-01T16:38:17.187Z,2.95
2023-05-01T16:40:45.163Z,2.90
2023-05-01T16:43:13.028Z,3.38
2023-05-01T16:45:40.844Z,3.42
2023-05-01T16:48:08.195Z,3.60
2023-05-01T16:50:41.464Z,3.63
2023-05-01T16:53:09.030Z,3.25
2023-05-01T16:55:36.458Z,3.58
2023-05-01T16:58:03.872Z,3.42
2023-05-01T17:00:31.599Z,3.75
2023-05-01T17:02:59.690Z,3.17
2023-05-01T17:05:27.233Z,3.45
2023-05-01T17:07:54.873Z,3.30
2023-05-01T17:10:22.269Z,3.88
2023-05-01T17:12:49.802Z,3.53
2023-05-01T17:15:17.271Z,3.38
2023-05-01T17:17:44.800Z,2.45
2023-05-01T17:20:12.858Z,2.38
2023-05-01T17:22:40.556Z,2.17
2023-05-01T17:25:08.935Z,1.92
2023-05-01T17:27:38.069Z,1.80
2023-05-01T17:30:06.276Z,2.17
2023-05-01T17:32:37.397Z,3.25
2023-05-01T17:35:06.297Z,1.75
2023-05-01T17:37:35.803Z,1.60
2023-05-01T17:40:04.384Z,1.75
2023-05-01T17:42:32.132Z,1.63
2023-05-01T17:44:59.670Z,1.83
2023-05-01T17:47:28.108Z,1.35
2023-05-01T17:49:56.007Z,1.48
2023-05-01T17:52:39.634Z,1.90
2023-05-01T17:55:07.568Z,1.65
2023-05-01T17:57:35.046Z,1.80
2023-05-01T18:00:02.786Z,1.20
2023-05-01T18:02:48.044Z,1.30
2023-05-01T18:05:15.642Z,1.52
2023-05-01T18:07:43.013Z,1.10
2023-05-01T18:10:11.345Z,1.42
2023-05-01T18:12:54.394Z,1.50
2023-05-01T18:15:23.091Z,1.55
2023-05-01T18:17:50.989Z,1.58
2023-05-01T18:20:18.383Z,1.10
2023-05-01T18:22:46.069Z,1.30
2023-05-01T18:25:14.328Z,1.17
2023-05-01T18:27:42.918Z,1.40
2023-05-01T18:30:10.661Z,1.38
2023-05-01T18:32:47.529Z,1.42
2023-05-01T18:35:17.392Z,1.20
2023-05-01T18:37:44.908Z,1.05
2023-05-01T18:40:13.100Z,1.50
2023-05-01T18:42:42.136Z,1.10
2023-05-01T18:45:11.078Z,1.42
2023-05-01T18:47:38.594Z,1.33
2023-05-01T18:50:06.954Z,1.60
2023-05-01T18:52:37.270Z,1.60
2023-05-01T18:55:05.307Z,1.20
2023-05-01T18:57:32.843Z,1.50
2023-05-01T19:00:01.586Z,1.10
2023-05-01T19:02:32.338Z,1.10
2023-05-01T19:04:59.968Z,1.15
2023-05-01T19:07:27.466Z,1.65
2023-05-01T19:09:54.862Z,1.70
2023-05-01T19:12:22.250Z,1.30
2023-05-01T19:15:05.968Z,1.77
2023-05-01T19:20:17.255Z,2.10
2023-05-01T19:22:44.681Z,1.95
2023-05-01T19:25:27.816Z,1.77
2023-05-01T19:27:56.272Z,1.63
2023-05-01T19:30:24.020Z,1.88
2023-05-01T19:32:52.244Z,1.50
2023-05-01T19:35:19.610Z,1.95
2023-05-01T19:37:48.741Z,1.65
2023-05-01T19:40:17.636Z,1.92
2023-05-01T19:42:44.970Z,1.88
2023-05-01T19:45:12.346Z,1.60
2023-05-01T19:47:39.793Z,1.90
2023-05-01T19:50:08.413Z,1.52
2023-05-01T19:52:35.957Z,2.08
2023-05-01T19:55:05.429Z,1.98
2023-05-01T20:00:18.060Z,1.77
2023-05-01T20:02:45.963Z,1.67
2023-05-01T20:05:14.156Z,1.38
2023-05-01T20:07:41.681Z,1.58
2023-05-01T20:10:10.039Z,1.92
2023-05-01T20:12:37.632Z,1.60
2023-05-01T20:15:05.898Z,1.83
2023-05-01T20:17:50.497Z,1.63
2023-05-01T20:20:19.471Z,1.52
2023-05-01T20:22:47.181Z,1.88
2023-05-01T20:25:14.586Z,2.17
2023-05-01T20:27:42.822Z,1.92
2023-05-01T20:30:11.471Z,2.38
2023-05-01T20:32:44.483Z,2.35
2023-05-01T20:35:12.133Z,2.45
2023-05-01T20:37:39.735Z,2.40
2023-05-01T20:40:08.024Z,2.30
2023-05-01T20:42:35.407Z,2.70
2023-05-01T20:45:02.764Z,2.45
2023-05-01T20:47:32.533Z,2.30
2023-05-01T20:50:00.595Z,2.70
2023-05-01T20:52:28.474Z,2.83
2023-05-01T20:54:56.981Z,4.03
2023-05-01T20:57:24.355Z,4.03
2023-05-01T20:59:51.622Z,4.25
2023-05-01T21:02:19.049Z,3.67
2023-05-01T21:04:46.587Z,3.63
2023-05-01T21:07:14.186Z,4.32
2023-05-01T21:09:45.279Z,3.38
2023-05-01T21:12:13.309Z,3.58
2023-05-01T21:14:41.236Z,4.10
2023-05-01T21:17:09.907Z,2.95
2023-05-01T21:19:42.769Z,3.38
2023-05-01T21:22:25.772Z,2.90
2023-05-01T21:27:31.041Z,2.58
2023-05-01T21:30:00.505Z,2.42
2023-05-01T21:32:34.811Z,2.72
2023-05-01T21:35:02.968Z,2.88
2023-05-01T21:37:33.724Z,2.60
2023-05-01T21:40:02.021Z,2.42
2023-05-01T21:42:31.904Z,2.50
2023-05-01T21:45:00.230Z,2.40
2023-05-01T21:47:28.196Z,2.22
2023-05-01T21:49:57.332Z,2.53
2023-05-01T21:52:24.954Z,2.17
2023-05-01T21:54:52.368Z,2.10
2023-05-01T21:57:19.796Z,2.17
2023-05-01T21:59:48.584Z,2.03
2023-05-01T22:02:15.860Z,1.77
2023-05-01T22:04:43.276Z,2.00
2023-05-01T22:07:10.690Z,2.20
2023-05-01T22:09:38.319Z,2.50
2023-05-01T22:12:06.065Z,2.15
2023-05-01T22:14:46.223Z,2.55
2023-05-01T22:17:14.983Z,2.08
2023-05-01T22:19:42.393Z,2.20
2023-05-01T22:22:09.822Z,1.90
2023-05-01T22:24:37.337Z,2.13
2023-05-01T22:27:04.731Z,2.13
2023-05-01T22:29:32.067Z,2.25
2023-05-01T22:31:59.413Z,2.05
2023-05-01T22:34:27.015Z,2.13
2023-05-01T22:36:54.363Z,1.88
2023-05-01T22:39:22.504Z,1.60
2023-05-01T22:41:49.915Z,1.73
2023-05-01T22:44:17.298Z,1.70
2023-05-01T22:46:44.830Z,2.03
2023-05-01T22:49:12.440Z,1.85
2023-05-01T22:51:39.787Z,1.52
2023-05-01T22:54:07.116Z,1.80
2023-05-01T22:56:34.396Z,2.00
2023-05-01T22:59:01.797Z,1.45
2023-05-01T23:01:29.677Z,1.50
2023-05-01T23:03:57.525Z,2.00
2023-05-01T23:06:25.062Z,1.70
2023-05-01T23:08:54.118Z,1.42
2023-05-01T23:11:22.125Z,1.80
2023-05-01T23:13:50.436Z,1.45
2023-05-01T23:16:18.434Z,1.85
2023-05-01T23:18:46.042Z,1.35
2023-05-01T23:21:14.161Z,2.42
2023-05-01T23:23:45.569Z,2.05
2023-05-01T23:26:24.436Z,2.22
2023-05-01T23:28:53.373Z,2.30
2023-05-01T23:31:25.951Z,1.67
2023-05-01T23:33:55.008Z,2.05
2023-05-01T23:36:23.073Z,1.77
2023-05-01T23:38:50.462Z,2.25
2023-05-01T23:41:17.900Z,1.85
2023-05-01T23:43:48.224Z,2.28
2023-05-01T23:46:15.995Z,2.33
2023-05-01T23:48:43.488Z,1.88
2023-05-01T23:51:11.096Z,2.28
2023-05-01T23:53:38.493Z,2.30
2023-05-01T23:56:06.156Z,2.13
2023-05-01T23:58:33.384Z,1.88
